Time;durP1;ratioP1;P1;durP2;ratioP2;P2;SDS_P1;SDS_P2;PMS_P1;PMS_P2;Temp;Humidity;BMP_temperature;BMP_pressure;BME280_temperature;BME280_humidity;BME280_pressure;Samples;Min_cycle;Max_cycle;Signal;HPM_P1;HPM_P2
2022/09/13 00:01:02;;;;;;;4.30;0.90;;;16.60;99.90;;;;;;5009332;28;20423;-79
2022/09/13 00:03:29;;;;;;;3.80;1.65;;;16.60;99.90;;;;;;5005343;28;20045;-79
2022/09/13 00:05:56;;;;;;;1.00;0.80;;;16.60;99.90;;;;;;5004231;28;20436;-78
2022/09/13 00:08:23;;;;;;;2.45;0.60;;;16.50;99.90;;;;;;5005575;28;20118;-78
2022/09/13 00:10:50;;;;;;;1.80;0.90;;;16.50;99.90;;;;;;5000195;28;20057;-78
2022/09/13 00:13:17;;;;;;;2.90;1.10;;;16.50;99.90;;;;;;4998767;28;20056;-80
2022/09/13 00:15:47;;;;;;;1.60;0.80;;;16.50;99.90;;;;;;5010934;28;20081;-78
2022/09/13 00:18:14;;;;;;;3.70;0.93;;;16.50;99.90;;;;;;5003029;28;20050;-77
2022/09/13 00:20:41;;;;;;;3.92;1.00;;;16.40;99.90;;;;;;5005280;28;20443;-78
2022/09/13 00:23:08;;;;;;;2.75;0.90;;;16.40;99.90;;;;;;5002793;28;20433;-78
2022/09/13 00:25:35;;;;;;;1.85;0.90;;;16.40;99.90;;;;;;4992164;28;20054;-79
2022/09/13 00:28:03;;;;;;;1.77;0.80;;;16.30;99.90;;;;;;4992290;28;20047;-78
2022/09/13 00:30:30;;;;;;;1.55;0.80;;;16.40;99.90;;;;;;4997705;28;20492;-78
2022/09/13 00:32:57;;;;;;;3.65;0.77;;;16.30;99.90;;;;;;5008270;28;20061;-78
2022/09/13 00:35:23;;;;;;;1.40;0.73;;;16.30;99.90;;;;;;5005652;28;20049;-81
2022/09/13 00:37:50;;;;;;;2.78;0.90;;;16.30;99.90;;;;;;5002518;28;20053;-78
2022/09/13 00:40:17;;;;;;;7.07;1.00;;;16.30;99.90;;;;;;5002986;28;20500;-79
2022/09/13 00:42:44;;;;;;;3.88;0.60;;;16.20;99.90;;;;;;5001915;28;20046;-81
2022/09/13 00:45:11;;;;;;;1.83;0.77;;;16.20;99.90;;;;;;4997332;28;20053;-77
2022/09/13 00:47:41;;;;;;;3.83;0.90;;;16.20;99.90;;;;;;5007026;28;20046;-79
2022/09/13 00:50:19;;;;;;;3.58;0.90;;;16.20;99.90;;;;;;5012941;28;20049;-79
2022/09/13 00:52:58;;;;;;;4.72;0.80;;;16.20;99.90;;;;;;5013492;28;20053;-79
2022/09/13 00:55:30;;;;;;;2.80;1.60;;;16.10;99.90;;;;;;5003271;28;20046;-80
2022/09/13 00:58:07;;;;;;;5.45;1.73;;;16.10;99.90;;;;;;5005198;28;20463;-80
2022/09/13 01:00:34;;;;;;;1.48;1.00;;;16.10;99.90;;;;;;5004231;28;20046;-79
2022/09/13 01:03:06;;;;;;;3.58;0.90;;;16.10;99.90;;;;;;5006628;28;20046;-80
2022/09/13 01:05:37;;;;;;;2.15;0.98;;;16.10;99.90;;;;;;5003524;28;20416;-79
2022/09/13 01:08:11;;;;;;;2.40;0.80;;;16.10;99.90;;;;;;5006809;28;20068;-79
2022/09/13 01:10:40;;;;;;;2.83;0.75;;;16.00;99.90;;;;;;5010382;28;20139;-79
2022/09/13 01:13:19;;;;;;;3.60;1.00;;;16.00;99.90;;;;;;5007425;28;20057;-79
2022/09/13 01:15:46;;;;;;;1.95;0.85;;;16.00;99.90;;;;;;5005317;28;20503;-80
2022/09/13 01:18:14;;;;;;;2.83;0.85;;;16.00;99.90;;;;;;5000813;28;20058;-82
2022/09/13 01:21:18;;;;;;;2.67;0.82;;;16.00;99.90;;;;;;5003374;28;20046;-78
2022/09/13 01:24:35;;;;;;;1.60;0.68;;;16.00;99.90;;;;;;5002869;28;20046;-80
2022/09/13 01:27:23;;;;;;;2.25;0.88;;;15.90;99.90;;;;;;5006810;28;20049;-78
2022/09/13 01:30:04;;;;;;;3.15;0.80;;;15.90;99.90;;;;;;5006100;28;20057;-81
2022/09/13 01:32:52;;;;;;;2.40;0.77;;;15.90;99.90;;;;;;5003447;28;20050;-81
2022/09/13 01:35:46;;;;;;;2.92;1.00;;;15.90;99.90;;;;;;5005193;28;20049;-81
2022/09/13 01:38:22;;;;;;;2.47;0.80;;;15.90;99.90;;;;;;5013963;28;20050;-81
2022/09/13 01:41:16;;;;;;;4.07;1.67;;;15.80;99.90;;;;;;5008841;28;20061;-78
2022/09/13 01:44:15;;;;;;;8.25;0.88;;;15.80;99.90;;;;;;5005309;28;20645;-80
2022/09/13 01:47:07;;;;;;;4.32;0.95;;;15.80;99.90;;;;;;5010690;28;20054;-80
2022/09/13 01:49:49;;;;;;;1.65;0.93;;;15.80;99.90;;;;;;5006913;28;20046;-80
2022/09/13 01:52:49;;;;;;;1.75;0.88;;;15.80;99.90;;;;;;5013856;28;20057;-81
2022/09/13 01:55:40;;;;;;;3.08;1.05;;;15.80;99.90;;;;;;5007168;28;20045;-78
2022/09/13 01:58:20;;;;;;;2.78;0.82;;;15.80;99.90;;;;;;5006401;28;20049;-79
2022/09/13 02:01:10;;;;;;;2.33;0.80;;;15.80;99.90;;;;;;5002542;28;20061;-79
2022/09/13 02:03:56;;;;;;;1.92;0.75;;;15.70;99.90;;;;;;4995005;28;20173;-78
2022/09/13 02:06:32;;;;;;;2.30;0.82;;;15.70;99.90;;;;;;4998253;28;20046;-79
2022/09/13 02:09:03;;;;;;;1.60;0.80;;;15.70;99.90;;;;;;5004010;28;20100;-78
2022/09/13 02:11:32;;;;;;;2.85;0.80;;;15.70;99.90;;;;;;5008363;28;20072;-79
2022/09/13 02:14:13;;;;;;;2.72;1.60;;;15.70;99.90;;;;;;5006032;28;20065;-79
2022/09/13 02:16:44;;;;;;;1.52;0.80;;;15.70;99.90;;;;;;5014348;28;20061;-78
2022/09/13 02:19:15;;;;;;;1.67;0.90;;;15.70;99.90;;;;;;5005221;28;20076;-78
2022/09/13 02:21:45;;;;;;;2.08;0.98;;;15.60;99.90;;;;;;5004994;28;20054;-79
2022/09/13 02:24:17;;;;;;;;;;;15.60;99.90;;;;;;5013902;28;20050;-77
2022/09/13 02:26:46;;;;;;;5.25;0.95;;;15.60;99.90;;;;;;5010211;28;20300;-78
2022/09/13 02:29:18;;;;;;;1.00;0.88;;;15.60;99.90;;;;;;5002602;28;20050;-79
2022/09/13 02:31:59;;;;;;;1.00;0.68;;;15.60;99.90;;;;;;5006465;28;20046;-79
2022/09/13 02:34:35;;;;;;;5.88;1.20;;;15.60;99.90;;;;;;5003527;28;20648;-79
2022/09/13 02:37:04;;;;;;;3.90;0.98;;;15.60;99.90;;;;;;5000790;28;20060;-80
2022/09/13 02:39:33;;;;;;;2.40;0.88;;;15.60;99.90;;;;;;5006055;28;20050;-80
2022/09/13 02:42:07;;;;;;;4.13;0.88;;;15.60;99.90;;;;;;5015264;28;20054;-80
2022/09/13 02:44:44;;;;;;;2.40;0.77;;;15.50;99.90;;;;;;5010617;28;20042;-78
2022/09/13 02:47:23;;;;;;;1.42;0.70;;;15.50;99.90;;;;;;5007021;28;20046;-80
2022/09/13 02:50:05;;;;;;;1.85;0.70;;;15.50;99.90;;;;;;5005740;28;20050;-81
2022/09/13 02:52:35;;;;;;;2.42;0.90;;;15.40;99.90;;;;;;5008507;28;20456;-80
2022/09/13 02:55:15;;;;;;;;;;;15.40;99.90;;;;;;5002146;28;20050;-79
2022/09/13 02:57:54;;;;;;;1.90;0.85;;;15.40;99.90;;;;;;5013356;28;20287;-79
2022/09/13 03:00:21;;;;;;;4.05;0.93;;;15.40;99.90;;;;;;5012375;28;20065;-79
2022/09/13 03:02:50;;;;;;;1.92;0.80;;;15.40;99.90;;;;;;4996303;28;20061;-80
2022/09/13 03:05:16;;;;;;;3.58;1.02;;;15.40;99.90;;;;;;4996355;28;20050;-80
2022/09/13 03:07:43;;;;;;;1.63;0.80;;;15.30;99.90;;;;;;4997855;28;20065;-80
2022/09/13 03:10:13;;;;;;;2.35;1.05;;;15.30;99.90;;;;;;5008580;28;20076;-82
2022/09/13 03:13:01;;;;;;;2.72;0.90;;;15.30;99.90;;;;;;4995824;28;20050;-78
2022/09/13 03:15:52;;;;;;;2.53;1.00;;;15.40;99.90;;;;;;4995695;28;20058;-78
2022/09/13 03:18:48;;;;;;;2.30;0.90;;;15.40;99.90;;;;;;5004954;28;20050;-84
2022/09/13 03:21:37;;;;;;;6.10;1.15;;;15.30;99.90;;;;;;5003521;28;20054;-78
2022/09/13 03:24:27;;;;;;;1.30;0.88;;;15.30;99.90;;;;;;5005360;28;20050;-79
2022/09/13 03:27:03;;;;;;;3.10;1.13;;;15.40;99.90;;;;;;5002224;28;20046;-78
2022/09/13 03:30:02;;;;;;;1.90;1.05;;;15.30;99.90;;;;;;5015534;28;20104;-78
2022/09/13 03:32:46;;;;;;;2.05;1.00;;;15.20;99.90;;;;;;4996377;28;20050;-78
2022/09/13 03:35:19;;;;;;;2.03;0.88;;;15.20;99.90;;;;;;4996053;28;20057;-77
2022/09/13 03:38:24;;;;;;;1.70;0.98;;;15.20;99.90;;;;;;5005011;28;20076;-79
2022/09/13 03:41:04;;;;;;;3.47;1.20;;;15.20;99.90;;;;;;4989497;28;20046;-79
2022/09/13 03:43:37;;;;;;;2.50;0.77;;;15.30;99.90;;;;;;5006767;28;20440;-80
2022/09/13 03:46:14;;;;;;;3.97;1.27;;;15.30;99.90;;;;;;5004021;28;20056;-80
2022/09/13 03:48:42;;;;;;;4.15;1.10;;;15.30;99.90;;;;;;5002155;28;20051;-78
2022/09/13 03:51:10;;;;;;;13.10;1.48;;;15.30;99.90;;;;;;4996729;28;20465;-78
2022/09/13 03:53:42;;;;;;;2.42;1.23;;;15.30;99.90;;;;;;5008058;28;20521;-79
2022/09/13 03:56:17;;;;;;;3.55;1.15;;;15.30;99.90;;;;;;5011127;28;20136;-79
2022/09/13 03:58:45;;;;;;;3.03;1.00;;;15.20;99.90;;;;;;5011385;28;20058;-78
2022/09/13 04:01:12;;;;;;;2.35;1.00;;;15.20;99.90;;;;;;5005576;28;20046;-79
2022/09/13 04:03:39;;;;;;;3.20;1.33;;;15.20;99.90;;;;;;5003681;28;20050;-77
2022/09/13 04:06:05;;;;;;;2.83;1.00;;;15.20;99.90;;;;;;5007052;28;20053;-79
2022/09/13 04:08:32;;;;;;;1.50;0.93;;;15.20;99.90;;;;;;5011646;28;20053;-78
2022/09/13 04:11:00;;;;;;;1.33;0.90;;;15.20;99.90;;;;;;5005378;28;20128;-80
2022/09/13 04:13:27;;;;;;;2.05;0.95;;;15.20;99.90;;;;;;5009338;28;20057;-79
2022/09/13 04:15:54;;;;;;;2.05;0.90;;;15.20;99.90;;;;;;5009716;28;20050;-82
2022/09/13 04:18:20;;;;;;;3.60;0.95;;;15.20;99.90;;;;;;5004998;28;20046;-79
2022/09/13 04:20:55;;;;;;;7.68;1.30;;;15.10;99.90;;;;;;4994975;28;20050;-82
2022/09/13 04:23:22;;;;;;;2.88;1.38;;;15.10;99.90;;;;;;4994987;28;20401;-79
2022/09/13 04:25:50;;;;;;;2.88;1.20;;;15.10;99.90;;;;;;5001777;28;20053;-79
2022/09/13 04:28:18;;;;;;;5.35;1.10;;;15.10;99.90;;;;;;4995558;28;20046;-79
2022/09/13 04:30:46;;;;;;;4.53;1.25;;;15.10;99.90;;;;;;4995124;28;20056;-80
2022/09/13 04:33:13;;;;;;;4.00;1.27;;;15.10;99.90;;;;;;5004328;28;20057;-81
2022/09/13 04:35:40;;;;;;;3.10;1.85;;;15.10;99.90;;;;;;5004644;28;20050;-79
2022/09/13 04:38:07;;;;;;;3.95;2.05;;;15.10;99.90;;;;;;5008942;28;20050;-79
2022/09/13 04:40:34;;;;;;;5.80;1.30;;;15.00;99.90;;;;;;5006500;28;20547;-79
2022/09/13 04:43:02;;;;;;;4.30;1.33;;;15.00;99.90;;;;;;5005922;28;20050;-80
2022/09/13 04:45:28;;;;;;;3.13;1.17;;;14.90;99.90;;;;;;5010510;28;20053;-80
2022/09/13 04:47:55;;;;;;;1.98;1.20;;;14.90;99.90;;;;;;5004896;28;20054;-81
2022/09/13 04:50:24;;;;;;;3.90;1.50;;;14.90;99.90;;;;;;5012318;28;20052;-80
2022/09/13 04:52:54;;;;;;;4.57;1.85;;;14.90;99.90;;;;;;5004552;28;20046;-79
2022/09/13 04:55:21;;;;;;;7.97;1.70;;;14.90;99.90;;;;;;5013756;28;20060;-80
2022/09/13 04:57:52;;;;;;;7.43;1.65;;;14.90;99.90;;;;;;5005247;28;20054;-80
2022/09/13 05:00:19;;;;;;;4.75;1.58;;;14.90;99.90;;;;;;5004789;28;20054;-81
2022/09/13 05:02:46;;;;;;;7.30;1.50;;;14.90;99.90;;;;;;5002520;28;20054;-82
2022/09/13 05:05:12;;;;;;;3.53;1.33;;;14.90;99.90;;;;;;5001023;28;20373;-80
2022/09/13 05:07:39;;;;;;;4.40;1.33;;;14.90;99.90;;;;;;5010019;28;20054;-79
2022/09/13 05:10:06;;;;;;;4.05;1.50;;;14.90;99.90;;;;;;5011145;28;20045;-79
2022/09/13 05:12:33;;;;;;;5.13;2.00;;;14.90;99.90;;;;;;5018398;28;20054;-79
2022/09/13 05:15:00;;;;;;;3.28;1.20;;;14.90;99.90;;;;;;5014592;28;20061;-79
2022/09/13 05:17:29;;;;;;;3.80;1.13;;;15.00;99.90;;;;;;5003018;28;20050;-78
2022/09/13 05:19:55;;;;;;;5.18;0.98;;;15.00;99.90;;;;;;5002665;28;20050;-79
2022/09/13 05:22:22;;;;;;;3.85;1.25;;;15.00;99.90;;;;;;5033826;28;20053;-79
2022/09/13 05:24:49;;;;;;;1.95;1.08;;;15.00;99.90;;;;;;5003919;28;20058;-79
2022/09/13 05:27:15;;;;;;;3.25;1.20;;;15.00;99.90;;;;;;5010185;28;20046;-80
2022/09/13 05:29:42;;;;;;;1.15;1.00;;;15.00;99.90;;;;;;5004108;28;20057;-80
2022/09/13 05:32:09;;;;;;;3.22;1.38;;;15.00;99.90;;;;;;5005614;28;20049;-78
2022/09/13 05:34:36;;;;;;;4.32;1.35;;;15.00;99.90;;;;;;5003808;28;20050;-81
2022/09/13 05:37:02;;;;;;;3.03;1.40;;;15.00;99.90;;;;;;5004120;28;20058;-83
2022/09/13 05:39:29;;;;;;;4.72;1.52;;;15.00;99.90;;;;;;5007070;28;20057;-78
2022/09/13 05:42:16;;;;;;;2.35;1.13;;;15.00;99.90;;;;;;5000886;28;20061;-81
2022/09/13 05:44:43;;;;;;;3.75;1.55;;;15.00;99.90;;;;;;5014583;28;20076;-78
2022/09/13 05:47:12;;;;;;;3.10;1.17;;;15.00;99.90;;;;;;4997090;28;20393;-77
2022/09/13 05:49:39;;;;;;;3.63;1.93;;;15.00;99.90;;;;;;5001983;28;20057;-78
2022/09/13 05:52:25;;;;;;;3.83;1.60;;;15.10;99.90;;;;;;4997092;28;20289;-78
2022/09/13 05:54:52;;;;;;;6.15;1.50;;;15.10;99.90;;;;;;5002667;28;20056;-78
2022/09/13 05:57:19;;;;;;;6.78;1.50;;;15.10;99.90;;;;;;5005081;28;20421;-79
2022/09/13 05:59:46;;;;;;;2.85;1.30;;;15.10;99.90;;;;;;5016741;28;20054;-79
2022/09/13 06:02:13;;;;;;;3.72;1.20;;;15.10;99.90;;;;;;5013901;28;20069;-79
2022/09/13 06:04:40;;;;;;;6.20;1.30;;;15.10;99.90;;;;;;5008658;28;20042;-78
2022/09/13 06:07:09;;;;;;;4.82;1.42;;;15.10;99.90;;;;;;5022809;28;20068;-81
2022/09/13 06:09:36;;;;;;;1.83;1.45;;;15.20;99.90;;;;;;5032847;28;20050;-80
2022/09/13 06:12:03;;;;;;;2.50;1.30;;;15.20;99.90;;;;;;5029472;28;20077;-80
2022/09/13 06:14:29;;;;;;;3.08;1.60;;;15.20;99.90;;;;;;5017695;28;20046;-78
2022/09/13 06:16:56;;;;;;;2.80;1.60;;;15.20;99.90;;;;;;5017180;28;20046;-78
2022/09/13 06:19:23;;;;;;;5.70;1.50;;;15.20;99.90;;;;;;5013294;28;20130;-79
2022/09/13 06:21:49;;;;;;;4.28;1.88;;;15.20;99.90;;;;;;5002666;28;20065;-80
2022/09/13 06:24:16;;;;;;;4.72;1.50;;;15.20;99.90;;;;;;5004126;28;20046;-81
2022/09/13 06:26:43;;;;;;;2.80;1.52;;;15.20;99.90;;;;;;5005151;28;20515;-79
2022/09/13 06:29:11;;;;;;;2.25;1.70;;;15.30;99.90;;;;;;5008673;28;20050;-79
2022/09/13 06:31:42;;;;;;;3.08;1.70;;;15.30;99.90;;;;;;5007940;28;20483;-79
2022/09/13 06:34:11;;;;;;;2.17;1.70;;;15.40;99.90;;;;;;4998724;28;20054;-81
2022/09/13 06:36:37;;;;;;;6.65;1.90;;;15.40;99.90;;;;;;4995931;28;20056;-79
2022/09/13 06:39:05;;;;;;;6.05;1.95;;;15.50;99.90;;;;;;4998357;28;20055;-77
2022/09/13 06:41:32;;;;;;;3.90;1.90;;;15.60;99.90;;;;;;5022661;28;20054;-79
2022/09/13 06:44:00;;;;;;;5.05;1.50;;;15.70;99.90;;;;;;5006179;28;20050;-79
2022/09/13 06:46:29;;;;;;;7.43;2.00;;;15.80;99.90;;;;;;5004928;28;20045;-79
2022/09/13 06:48:59;;;;;;;2.33;1.20;;;15.80;99.90;;;;;;5007769;28;20049;-81
2022/09/13 06:51:28;;;;;;;3.95;1.45;;;16.00;99.90;;;;;;5007612;28;20050;-79
2022/09/13 06:53:55;;;;;;;3.35;1.48;;;16.10;99.90;;;;;;5000601;28;20052;-79
2022/09/13 06:56:36;;;;;;;2.92;1.88;;;16.20;99.90;;;;;;4996786;28;20141;-81
2022/09/13 06:59:06;;;;;;;4.35;1.33;;;16.30;99.90;;;;;;5014559;28;20125;-80
2022/09/13 07:01:42;;;;;;;3.67;1.60;;;16.30;99.90;;;;;;5005672;28;20412;-80
2022/09/13 07:04:13;;;;;;;2.95;1.20;;;16.40;99.90;;;;;;5021187;28;20050;-78
2022/09/13 07:06:42;;;;;;;5.93;1.50;;;16.50;99.90;;;;;;5004537;28;20057;-79
2022/09/13 07:09:12;;;;;;;6.68;1.40;;;16.60;99.90;;;;;;4999260;28;20046;-78
2022/09/13 07:11:40;;;;;;;4.30;1.52;;;16.70;99.90;;;;;;5005604;28;20054;-81
2022/09/13 07:14:07;;;;;;;2.80;1.20;;;16.80;99.90;;;;;;5012842;28;20155;-81
2022/09/13 07:16:37;;;;;;;2.03;1.33;;;16.90;99.90;;;;;;5010301;28;20058;-78
2022/09/13 07:19:05;;;;;;;2.55;1.55;;;17.00;99.90;;;;;;5009274;28;20137;-80
2022/09/13 07:21:34;;;;;;;7.00;2.15;;;17.10;99.90;;;;;;5007317;28;20053;-79
2022/09/13 07:24:01;;;;;;;3.65;1.38;;;17.20;99.90;;;;;;5003570;28;20050;-78
2022/09/13 07:26:27;;;;;;;4.55;1.25;;;17.20;99.90;;;;;;5003122;28;20057;-81
2022/09/13 07:28:57;;;;;;;4.07;1.25;;;17.30;99.90;;;;;;5001014;28;20061;-80
2022/09/13 07:31:27;;;;;;;3.53;1.10;;;17.40;99.90;;;;;;5000877;28;20045;-80
2022/09/13 07:33:59;;;;;;;1.38;1.10;;;17.50;99.90;;;;;;5011619;28;20041;-80
2022/09/13 07:36:28;;;;;;;2.78;1.00;;;17.50;99.90;;;;;;5007822;28;20050;-82
2022/09/13 07:38:56;;;;;;;4.45;1.92;;;17.50;99.90;;;;;;5010795;28;20049;-83
2022/09/13 07:41:25;;;;;;;2.63;1.13;;;17.60;99.90;;;;;;5014949;28;20056;-81
2022/09/13 07:43:52;;;;;;;3.28;1.70;;;17.60;99.90;;;;;;5007867;28;20046;-82
2022/09/13 07:46:21;;;;;;;10.80;1.80;;;17.50;99.90;;;;;;4985963;28;20702;-82
2022/09/13 07:48:50;;;;;;;5.38;1.15;;;17.60;99.90;;;;;;5001993;28;20067;-81
2022/09/13 07:51:22;;;;;;;1.50;1.00;;;17.50;99.90;;;;;;5000724;28;20050;-82
2022/09/13 07:53:53;;;;;;;5.00;1.42;;;17.60;99.90;;;;;;5000954;28;20137;-81
2022/09/13 07:56:28;;;;;;;3.45;1.33;;;17.60;99.90;;;;;;5010211;28;20408;-80
2022/09/13 07:58:57;;;;;;;3.08;1.20;;;17.60;99.90;;;;;;5004593;28;20056;-81
2022/09/13 08:01:48;;;;;;;3.40;1.42;;;17.60;99.90;;;;;;5011933;28;20050;-81
2022/09/13 08:04:17;;;;;;;3.22;1.48;;;17.60;99.90;;;;;;5005184;28;20054;-80
2022/09/13 08:06:45;;;;;;;1.55;1.02;;;17.70;99.90;;;;;;4999563;28;20050;-80
2022/09/13 08:09:13;;;;;;;7.57;1.50;;;17.80;99.90;;;;;;5009951;28;20223;-79
2022/09/13 08:11:42;;;;;;;3.17;1.08;;;17.80;99.90;;;;;;5001776;28;20050;-81
2022/09/13 08:14:12;;;;;;;5.32;1.88;;;17.80;99.90;;;;;;5007973;28;20046;-80
2022/09/13 08:16:39;;;;;;;2.70;1.30;;;17.90;99.90;;;;;;5011720;28;20057;-80
2022/09/13 08:19:07;;;;;;;11.80;1.85;;;17.90;99.90;;;;;;5013274;28;20068;-80
2022/09/13 08:21:37;;;;;;;1.67;1.30;;;17.90;99.90;;;;;;5014424;28;20471;-80
2022/09/13 08:24:06;;;;;;;4.72;1.70;;;18.00;99.90;;;;;;5003490;28;20050;-80
2022/09/13 08:26:35;;;;;;;2.20;1.40;;;18.10;99.90;;;;;;5007120;28;20049;-80
2022/09/13 08:29:05;;;;;;;3.40;1.38;;;18.10;99.90;;;;;;5006277;28;20397;-82
2022/09/13 08:31:33;;;;;;;3.65;1.15;;;18.20;99.90;;;;;;5006777;28;20496;-81
2022/09/13 08:33:59;;;;;;;2.85;1.38;;;18.20;99.90;;;;;;5011123;28;20061;-81
2022/09/13 08:36:27;;;;;;;5.65;1.50;;;18.30;99.90;;;;;;5007127;28;20054;-81
2022/09/13 08:38:57;;;;;;;3.72;1.55;;;18.30;99.90;;;;;;5003901;28;20073;-80
2022/09/13 08:41:24;;;;;;;2.38;1.30;;;18.40;99.90;;;;;;5009375;28;20049;-79
2022/09/13 08:44:03;;;;;;;3.55;1.35;;;18.40;99.90;;;;;;5007075;28;20050;-80
2022/09/13 08:46:43;;;;;;;3.42;1.20;;;18.50;99.90;;;;;;5012357;28;20054;-80
2022/09/13 08:49:27;;;;;;;3.90;1.35;;;18.60;99.90;;;;;;5019891;28;20046;-81
2022/09/13 08:51:57;;;;;;;4.43;1.38;;;18.60;99.90;;;;;;5016636;28;20046;-81
2022/09/13 08:54:24;;;;;;;;;;;18.70;99.90;;;;;;5025078;28;20467;-80
2022/09/13 08:57:08;;;;;;;4.82;1.60;;;18.70;99.90;;;;;;5013786;28;19921;-81
2022/09/13 08:59:38;;;;;;;2.70;1.73;;;18.90;99.90;;;;;;5012136;28;20052;-82
2022/09/13 09:02:12;;;;;;;5.80;1.75;;;18.90;99.90;;;;;;5014383;28;20054;-81
2022/09/13 09:04:55;;;;;;;4.18;1.58;;;19.00;99.90;;;;;;5013095;28;20053;-80
2022/09/13 09:07:25;;;;;;;4.82;1.80;;;19.00;99.90;;;;;;5014297;28;20124;-81
2022/09/13 09:09:57;;;;;;;4.43;2.10;;;19.10;99.90;;;;;;5016151;28;20462;-82
2022/09/13 09:12:38;;;;;;;4.50;1.88;;;19.20;99.90;;;;;;5014454;28;20065;-82
2022/09/13 09:15:27;;;;;;;4.45;1.60;;;19.20;99.90;;;;;;5015606;28;20057;-82
2022/09/13 09:17:57;;;;;;;3.97;1.23;;;19.40;99.90;;;;;;5015304;28;20073;-80
2022/09/13 09:20:36;;;;;;;2.92;1.13;;;19.50;99.90;;;;;;5011763;28;20104;-82
2022/09/13 09:23:19;;;;;;;6.05;1.40;;;19.50;99.90;;;;;;5016965;28;20426;-83
2022/09/13 09:25:51;;;;;;;6.82;1.65;;;19.70;99.90;;;;;;5013058;28;20077;-82
2022/09/13 09:28:18;;;;;;;4.57;1.70;;;19.80;99.90;;;;;;5018843;28;20488;-81
2022/09/13 09:30:50;;;;;;;4.97;1.40;;;19.80;99.90;;;;;;5011414;28;20500;-80
2022/09/13 09:33:45;;;;;;;4.20;1.55;;;20.00;99.90;;;;;;5014904;28;20733;-80
2022/09/13 09:36:38;;;;;;;8.50;1.73;;;20.30;99.90;;;;;;5019207;28;20082;-80
2022/09/13 09:39:09;;;;;;;2.20;1.40;;;20.50;99.90;;;;;;5008466;28;20056;-81
2022/09/13 09:41:37;;;;;;;4.15;1.30;;;20.50;99.90;;;;;;5019563;28;20056;-83
2022/09/13 09:44:19;;;;;;;7.03;1.40;;;20.60;99.90;;;;;;5016575;28;20515;-81
2022/09/13 09:47:14;;;;;;;3.25;1.90;;;20.70;99.90;;;;;;5013712;28;20101;-82
2022/09/13 09:50:11;;;;;;;4.68;1.10;;;20.80;99.90;;;;;;5014284;28;20054;-83
2022/09/13 09:52:49;;;;;;;3.38;1.50;;;20.90;99.90;;;;;;5014736;28;20072;-83
2022/09/13 09:55:27;;;;;;;4.75;1.75;;;20.90;99.90;;;;;;5015126;28;20050;-83
2022/09/13 09:58:00;;;;;;;2.25;1.45;;;20.90;99.90;;;;;;5015374;28;20423;-84
2022/09/13 10:00:31;;;;;;;4.63;1.50;;;20.90;99.90;;;;;;5010528;28;20117;-81
2022/09/13 10:03:03;;;;;;;2.40;1.10;;;21.00;99.90;;;;;;5015062;28;20104;-82
2022/09/13 10:05:31;;;;;;;2.30;1.48;;;21.10;99.90;;;;;;5010441;28;20057;-79
2022/09/13 10:07:59;;;;;;;5.53;1.60;;;21.10;99.90;;;;;;5008834;28;20046;-83
2022/09/13 10:10:37;;;;;;;6.07;1.60;;;21.20;99.90;;;;;;5012222;28;20492;-82
2022/09/13 10:13:07;;;;;;;5.78;1.77;;;21.20;99.90;;;;;;5017170;28;20045;-81
2022/09/13 10:15:34;;;;;;;3.17;1.25;;;21.30;99.90;;;;;;5015467;28;20050;-81
2022/09/13 10:18:15;;;;;;;3.97;1.45;;;21.30;99.90;;;;;;5006934;28;20060;-83
2022/09/13 10:21:06;;;;;;;3.00;1.38;;;21.30;99.90;;;;;;5013474;28;20045;-81
2022/09/13 10:23:35;;;;;;;3.33;1.38;;;21.40;99.90;;;;;;5010511;28;20105;-83
2022/09/13 10:26:06;;;;;;;7.82;1.23;;;21.50;99.90;;;;;;5011664;28;20423;-83
2022/09/13 10:29:02;;;;;;;2.88;1.80;;;21.60;99.90;;;;;;5024172;28;20061;-81
2022/09/13 10:31:38;;;;;;;2.38;1.33;;;21.70;99.90;;;;;;5012276;28;20046;-81
2022/09/13 10:34:19;;;;;;;3.75;1.60;;;21.80;99.90;;;;;;5007141;28;20052;-82
2022/09/13 10:37:12;;;;;;;3.88;1.20;;;21.80;99.90;;;;;;5011090;28;20062;-83
2022/09/13 10:39:55;;;;;;;2.05;1.00;;;21.90;99.90;;;;;;5005682;28;20046;-82
2022/09/13 10:42:25;;;;;;;7.45;1.30;;;22.00;99.90;;;;;;5009431;28;20132;-82
2022/09/13 10:45:01;;;;;;;5.83;1.30;;;22.10;99.90;;;;;;5008967;28;20397;-84
2022/09/13 10:47:43;;;;;;;3.67;1.40;;;22.20;99.90;;;;;;5009719;28;20305;-81
2022/09/13 10:50:26;;;;;;;2.05;1.10;;;22.20;99.90;;;;;;5004865;28;20051;-79
2022/09/13 10:52:57;;;;;;;2.88;1.05;;;22.30;99.90;;;;;;5012361;28;20046;-80
2022/09/13 10:55:31;;;;;;;2.95;1.15;;;22.40;99.90;;;;;;5002756;28;20046;-80
2022/09/13 10:58:01;;;;;;;2.85;1.25;;;22.60;99.90;;;;;;5005791;28;20042;-82
2022/09/13 11:01:01;;;;;;;3.00;1.02;;;22.70;99.90;;;;;;5008075;28;20064;-82
2022/09/13 11:04:02;;;;;;;3.15;1.58;;;22.90;99.90;;;;;;5026111;23;20038;-79
2022/09/13 11:06:39;;;;;;;3.90;1.10;;;22.90;99.90;;;;;;5013209;28;20050;-78
2022/09/13 11:09:18;;;;;;;5.70;1.50;;;23.00;99.90;;;;;;5012594;28;20042;-78
2022/09/13 11:11:57;;;;;;;4.75;1.63;;;22.90;99.90;;;;;;5015199;28;20114;-78
2022/09/13 11:14:41;;;;;;;4.03;1.20;;;23.00;99.90;;;;;;5012597;28;20113;-79
2022/09/13 11:17:39;;;;;;;5.72;1.40;;;23.00;99.90;;;;;;5013382;28;20050;-79
2022/09/13 11:20:17;;;;;;;3.53;1.42;;;23.20;99.90;;;;;;5014984;28;20046;-78
2022/09/13 11:23:06;;;;;;;1.85;1.00;;;23.40;99.90;;;;;;5012435;28;20531;-78
2022/09/13 11:25:53;;;;;;;4.75;1.30;;;23.60;99.90;;;;;;5011195;28;20054;-78
2022/09/13 11:28:29;;;;;;;3.60;1.00;;;23.70;99.90;;;;;;5006938;28;20092;-79
2022/09/13 11:31:31;;;;;;;6.10;1.42;;;23.90;99.90;;;;;;5021372;28;20050;-79
2022/09/13 11:34:05;;;;;;;2.10;0.90;;;24.00;99.90;;;;;;5017691;28;20424;-79
2022/09/13 11:37:03;;;;;;;3.55;1.20;;;24.10;99.90;;;;;;5018165;28;20050;-79
2022/09/13 11:39:49;;;;;;;2.95;1.17;;;24.40;99.90;;;;;;5017525;28;20503;-78
2022/09/13 11:42:26;;;;;;;4.28;1.45;;;24.70;99.90;;;;;;5011410;28;20050;-79
2022/09/13 11:45:13;;;;;;;3.38;1.10;;;25.00;99.90;;;;;;5009357;28;20123;-78
2022/09/13 11:48:05;;;;;;;1.35;0.85;;;25.10;99.90;;;;;;5013323;28;20042;-79
2022/09/13 11:50:51;;;;;;;2.95;1.13;;;25.10;99.90;;;;;;5013320;28;20051;-78
2022/09/13 11:53:49;;;;;;;3.50;1.05;;;25.30;99.90;;;;;;5012811;28;20093;-79
2022/09/13 11:56:43;;;;;;;2.72;1.00;;;25.30;99.90;;;;;;5010842;28;20058;-79
2022/09/13 11:59:42;;;;;;;3.08;1.00;;;25.40;99.90;;;;;;5010520;28;20050;-79
2022/09/13 12:02:19;;;;;;;3.60;0.80;;;25.50;99.90;;;;;;5013143;28;20057;-79
2022/09/13 12:04:53;;;;;;;2.90;1.20;;;25.40;99.90;;;;;;5010020;28;20134;-80
2022/09/13 12:07:48;;;;;;;1.35;1.10;;;25.40;99.90;;;;;;5013689;28;20080;-79
2022/09/13 12:10:35;;;;;;;2.55;1.23;;;25.50;99.90;;;;;;5010328;28;20047;-78
2022/09/13 12:13:05;;;;;;;1.88;0.98;;;25.60;99.90;;;;;;5008980;28;20057;-78
2022/09/13 12:15:46;;;;;;;1.40;1.00;;;25.80;99.90;;;;;;5010544;28;20041;-79
2022/09/13 12:18:32;;;;;;;3.95;1.20;;;25.90;99.90;;;;;;5006134;28;20060;-80
2022/09/13 12:21:06;;;;;;;3.95;1.10;;;26.00;99.90;;;;;;5013254;28;20054;-79
2022/09/13 12:23:37;;;;;;;5.18;1.48;;;26.00;99.90;;;;;;5013188;28;20053;-80
2022/09/13 12:26:18;;;;;;;4.05;1.08;;;25.90;99.90;;;;;;5005893;28;20458;-79
2022/09/13 12:28:50;;;;;;;3.22;0.80;;;25.90;99.90;;;;;;5005681;28;20038;-80
2022/09/13 12:31:24;;;;;;;3.53;0.88;;;25.80;99.90;;;;;;5012265;28;20045;-81
2022/09/13 12:33:51;;;;;;;3.78;1.20;;;25.80;99.90;;;;;;5012407;28;20053;-80
2022/09/13 12:36:37;;;;;;;5.57;1.10;;;25.90;99.90;;;;;;5008228;28;20057;-80
2022/09/13 12:39:22;;;;;;;2.55;0.90;;;26.00;99.90;;;;;;5006740;28;20094;-80
2022/09/13 12:42:22;;;;;;;6.65;1.48;;;26.00;99.90;;;;;;5005576;28;20053;-79
2022/09/13 12:44:55;;;;;;;;;;;26.10;99.90;;;;;;5008138;28;20570;-79
2022/09/13 12:47:43;;;;;;;4.25;1.33;;;26.10;99.90;;;;;;5007522;28;19957;-79
2022/09/13 12:50:19;;;;;;;6.25;1.27;;;26.10;99.90;;;;;;5007762;28;20054;-79
2022/09/13 12:53:40;;;;;;;2.72;1.25;;;26.20;99.90;;;;;;5010277;28;20053;-79
2022/09/13 12:56:32;;;;;;;3.33;1.40;;;26.20;99.90;;;;;;5009092;28;20061;-79
2022/09/13 12:59:22;;;;;;;4.18;1.20;;;26.20;99.90;;;;;;5006695;28;20058;-79
2022/09/13 13:01:50;;;;;;;3.08;1.27;;;26.30;99.90;;;;;;5010315;28;20046;-79
2022/09/13 13:04:34;;;;;;;2.83;1.15;;;26.20;99.90;;;;;;5010652;28;20054;-79
2022/09/13 13:07:19;;;;;;;2.33;0.90;;;26.20;99.90;;;;;;5006030;28;20507;-79
2022/09/13 13:09:52;;;;;;;3.92;1.35;;;26.20;99.90;;;;;;5009932;28;20053;-79
2022/09/13 13:12:38;;;;;;;3.13;0.85;;;26.10;99.90;;;;;;5011105;28;20129;-79
2022/09/13 13:15:11;;;;;;;2.45;0.80;;;26.10;99.90;;;;;;5005027;28;20046;-79
2022/09/13 13:17:45;;;;;;;6.65;1.17;;;26.10;99.90;;;;;;5006312;28;20046;-79
2022/09/13 13:20:40;;;;;;;4.25;0.98;;;26.10;99.90;;;;;;5008109;28;20064;-79
2022/09/13 13:23:22;;;;;;;2.33;0.85;;;26.10;99.90;;;;;;5008214;28;20058;-79
2022/09/13 13:26:04;;;;;;;2.15;1.10;;;26.20;99.90;;;;;;5011566;28;20136;-79
2022/09/13 13:28:43;;;;;;;3.25;0.95;;;26.20;99.90;;;;;;5010958;28;20129;-79